Terminal Aerodrome Forecast
Issued by NWS

Home | Current Version | Previous Version | Graphics & Text | Print | Product List | Glossary On
Versions: 1 2 3 4 5 6 7 8 9 10 11 12 13 14 15 16
000
FTUS43 KICT 180500
TAFSLN
TAF
KSLN 180520Z 1806/1906 02015KT P6SM -TSRA SCT060CB
     FM180630 06012KT P6SM SCT100
     FM181100 17010KT P6SM SCT250
     FM181800 18013KT P6SM SCT250=

USA.gov is the U.S. government's official web portal to all federal, state and local government web resources and services.